Time;durP1;ratioP1;P1;durP2;ratioP2;P2;SDS_P1;SDS_P2;PMS_P1;PMS_P2;Temp;Humidity;BMP_temperature;BMP_pressure;BME280_temperature;BME280_humidity;BME280_pressure;Samples;Min_cycle;Max_cycle;Signal;HPM_P1;HPM_P2
2024/04/16 00:01:55;;;;;;;6.77;5.87;;;;;;;9.12;65.77;99331.97;5309892;26;20693;-75
2024/04/16 00:04:21;;;;;;;8.57;6.50;;;;;;;8.85;67.41;99336.47;5310376;27;20229;-75
2024/04/16 00:06:46;;;;;;;8.40;6.50;;;;;;;8.75;67.05;99335.66;5279946;27;20226;-75
2024/04/16 00:09:12;;;;;;;10.50;6.80;;;;;;;8.42;67.16;99328.88;5310741;27;20449;-75
2024/04/16 00:11:38;;;;;;;7.93;6.30;;;;;;;8.70;65.63;99323.56;5309935;26;20241;-77
2024/04/16 00:14:03;;;;;;;6.73;6.03;;;;;;;8.36;67.27;99329.75;5310510;27;20345;-75
2024/04/16 00:16:29;;;;;;;6.77;6.17;;;;;;;8.97;66.17;99322.53;5313285;27;20444;-75
2024/04/16 00:18:54;;;;;;;7.03;6.17;;;;;;;8.26;67.19;99328.06;5282803;27;20773;-74
2024/04/16 00:21:19;;;;;;;7.33;6.30;;;;;;;8.76;66.41;99321.78;5312832;26;20234;-75
2024/04/16 00:23:45;;;;;;;7.73;6.17;;;;;;;9.20;65.78;99317.16;5313090;27;20339;-75
2024/04/16 00:26:10;;;;;;;8.40;5.83;;;;;;;8.67;66.31;99324.44;5313131;27;20700;-75
2024/04/16 00:28:35;;;;;;;10.97;6.53;;;;;;;8.89;66.35;99322.59;5312886;27;20238;-76
2024/04/16 00:31:01;;;;;;;8.10;6.90;;;;;;;8.75;66.63;99322.69;5313287;27;20246;-75
2024/04/16 00:33:26;;;;;;;9.63;7.37;;;;;;;8.88;66.42;99325.19;5313223;27;20226;-75
2024/04/16 00:35:51;;;;;;;11.90;7.80;;;;;;;9.03;65.33;99326.84;5312979;27;20696;-73
2024/04/16 00:38:16;;;;;;;8.13;7.10;;;;;;;8.79;66.42;99331.31;5312904;27;20272;-76
2024/04/16 00:40:42;;;;;;;7.67;6.30;;;;;;;9.08;66.05;99331.13;5313108;27;20265;-75
2024/04/16 00:43:18;;;;;;;14.50;11.23;;;;;;;8.94;66.16;99332.94;5312734;27;20230;-75
2024/04/16 00:45:55;;;;;;;6.53;5.40;;;;;;;8.47;67.27;99327.16;5312847;27;20325;-75
2024/04/16 00:48:25;;;;;;;8.27;5.47;;;;;;;8.31;67.86;99323.72;5312377;27;20773;-75
2024/04/16 00:50:53;;;;;;;7.27;5.60;;;;;;;8.90;66.29;99326.91;5312871;27;20445;-75
2024/04/16 00:53:20;;;;;;;5.73;5.13;;;;;;;9.04;65.88;99334.63;5312841;27;20445;-75
2024/04/16 00:55:46;;;;;;;7.33;5.97;;;;;;;8.47;67.37;99324.56;5312997;27;20874;-74
2024/04/16 00:58:16;;;;;;;5.80;5.20;;;;;;;8.50;67.04;99324.53;5312872;27;20454;-75
2024/04/16 01:00:41;;;;;;;4.90;4.50;;;;;;;7.99;68.27;99318.63;5312454;27;20488;-75
2024/04/16 01:03:07;;;;;;;4.90;4.30;;;;;;;8.98;66.29;99313.84;5312618;27;20449;-75
2024/04/16 01:05:32;;;;;;;6.03;5.00;;;;;;;8.63;66.28;99317.53;5312561;27;20218;-74
2024/04/16 01:07:59;;;;;;;9.63;4.93;;;;;;;8.69;67.34;99320.09;5312599;27;20226;-75
2024/04/16 01:10:24;;;;;;;4.97;4.57;;;;;;;8.36;67.45;99314.19;5312675;27;20222;-75
2024/04/16 01:12:49;;;;;;;5.40;4.70;;;;;;;8.73;68.12;99307.97;5312729;27;20564;-75
2024/04/16 01:15:14;;;;;;;4.90;4.50;;;;;;;8.86;67.92;99300.94;5312874;27;20633;-74
2024/04/16 01:17:41;;;;;;;5.40;4.40;;;;;;;8.50;68.02;99297.72;5312631;27;20214;-74
2024/04/16 01:20:07;;;;;;;4.73;4.23;;;;;;;8.08;69.45;99298.69;5313146;27;20269;-75
2024/04/16 01:22:32;;;;;;;6.03;4.93;;;;;;;8.42;69.27;99288.16;5312877;27;20452;-75
2024/04/16 01:24:58;;;;;;;4.23;3.83;;;;;;;8.22;68.92;99290.00;5312492;27;20347;-75
2024/04/16 01:27:23;;;;;;;4.00;3.60;;;;;;;8.33;68.66;99293.41;5312033;27;20684;-75
2024/04/16 01:29:48;;;;;;;6.70;4.00;;;;;;;8.57;68.50;99299.41;5312499;27;20230;-74
2024/04/16 01:32:15;;;;;;;5.23;4.20;;;;;;;8.50;68.07;99300.31;5312418;27;20623;-75
2024/04/16 01:34:41;;;;;;;4.53;4.13;;;;;;;8.80;68.17;99285.41;5312572;27;20293;-75
2024/04/16 01:37:07;;;;;;;4.83;4.33;;;;;;;9.02;68.02;99288.72;5312491;27;20449;-74
2024/04/16 01:39:32;;;;;;;4.60;4.20;;;;;;;8.22;69.05;99287.41;5312259;27;20691;-76
2024/04/16 01:41:57;;;;;;;5.40;4.90;;;;;;;8.83;68.31;99290.56;5312010;27;20457;-75
2024/04/16 01:44:23;;;;;;;7.40;5.20;;;;;;;8.21;70.03;99288.25;5311734;27;20315;-75
2024/04/16 01:46:48;;;;;;;6.03;5.03;;;;;;;8.90;68.81;99292.25;5312043;27;20223;-75
2024/04/16 01:49:13;;;;;;;5.20;4.70;;;;;;;8.07;68.91;99296.97;5312065;27;20249;-75
2024/04/16 01:51:38;;;;;;;6.27;5.13;;;;;;;8.60;68.88;99291.56;5312045;27;20225;-76
2024/04/16 01:54:04;;;;;;;5.30;4.50;;;;;;;8.66;68.14;99286.34;5312061;27;21009;-76
2024/04/16 01:56:29;;;;;;;7.63;4.63;;;;;;;8.70;68.73;99293.25;5312153;27;20293;-75
2024/04/16 01:58:54;;;;;;;5.33;4.80;;;;;;;8.59;68.70;99284.66;5311806;27;20222;-72
2024/04/16 02:01:20;;;;;;;6.10;5.20;;;;;;;9.00;67.49;99275.72;5311868;27;20604;-75
2024/04/16 02:03:45;;;;;;;5.97;4.90;;;;;;;8.47;67.60;99285.59;5311686;27;20234;-76
2024/04/16 02:06:10;;;;;;;5.20;4.80;;;;;;;9.21;66.90;99279.88;5311730;27;20222;-74
2024/04/16 02:08:35;;;;;;;6.50;4.83;;;;;;;8.85;66.95;99275.81;5312194;27;20269;-75
2024/04/16 02:11:01;;;;;;;5.33;4.83;;;;;;;8.91;67.69;99274.03;5312333;27;20711;-75
2024/04/16 02:13:26;;;;;;;7.90;4.70;;;;;;;8.87;67.23;99279.28;5312046;27;20763;-75
2024/04/16 02:15:52;;;;;;;5.93;5.33;;;;;;;9.04;67.75;99277.44;5311959;27;20224;-74
2024/04/16 02:18:18;;;;;;;6.87;5.50;;;;;;;9.08;67.58;99278.28;5311542;27;20222;-76
2024/04/16 02:20:43;;;;;;;8.97;5.27;;;;;;;9.28;66.94;99272.88;5311815;27;20218;-74
2024/04/16 02:23:09;;;;;;;5.97;4.97;;;;;;;8.89;67.82;99274.91;5311599;27;21022;-75
2024/04/16 02:25:34;;;;;;;7.40;4.80;;;;;;;9.05;68.23;99279.16;5311710;27;20234;-75
2024/04/16 02:28:00;;;;;;;6.23;5.53;;;;;;;8.25;69.50;99284.78;5311502;27;20262;-76
2024/04/16 02:30:25;;;;;;;8.23;5.00;;;;;;;8.75;69.57;99286.31;5311591;27;20233;-74
2024/04/16 02:32:50;;;;;;;6.67;5.60;;;;;;;8.05;70.71;99283.16;5311454;27;20268;-75
2024/04/16 02:35:16;;;;;;;5.57;4.87;;;;;;;8.51;69.82;99283.81;5311518;27;20278;-75
2024/04/16 02:37:41;;;;;;;5.67;5.17;;;;;;;8.83;67.98;99286.22;5310374;27;20214;-75
2024/04/16 02:40:07;;;;;;;7.97;5.77;;;;;;;9.12;68.23;99289.50;5311770;27;20222;-75
2024/04/16 02:42:33;;;;;;;7.87;5.00;;;;;;;8.80;68.52;99293.22;5312676;27;20246;-75
2024/04/16 02:44:58;;;;;;;5.43;4.93;;;;;;;8.35;69.86;99296.00;5312232;27;20465;-75
2024/04/16 02:47:23;;;;;;;5.10;4.70;;;;;;;8.80;68.93;99301.00;5312207;27;20551;-75
2024/04/16 02:49:49;;;;;;;6.90;4.97;;;;;;;8.97;68.65;99291.34;5312127;27;20234;-75
2024/04/16 02:52:14;;;;;;;7.53;4.70;;;;;;;8.68;69.01;99295.00;5311682;27;20214;-75
2024/04/16 02:54:39;;;;;;;5.57;5.07;;;;;;;9.23;68.02;99285.94;5311644;27;20234;-74
2024/04/16 02:57:04;;;;;;;6.23;5.67;;;;;;;9.32;67.85;99292.78;5311945;27;20332;-75
2024/04/16 02:59:30;;;;;;;5.60;5.00;;;;;;;9.20;68.01;99291.19;5311048;27;20268;-75
2024/04/16 03:01:55;;;;;;;6.83;4.90;;;;;;;9.30;68.10;99289.34;5311587;27;20301;-74
2024/04/16 03:04:20;;;;;;;5.03;4.53;;;;;;;8.70;68.84;99290.66;5311554;27;20736;-75
2024/04/16 03:06:45;;;;;;;7.60;4.90;;;;;;;9.26;68.35;99282.44;5281007;27;20256;-74
2024/04/16 03:09:11;;;;;;;5.60;5.10;;;;;;;9.23;67.49;99285.09;5311099;27;20713;-74
2024/04/16 03:11:36;;;;;;;8.30;5.40;;;;;;;9.61;67.72;99279.50;5310737;27;20222;-76
2024/04/16 03:14:01;;;;;;;6.40;5.03;;;;;;;9.43;67.64;99280.56;5310637;27;20744;-75
2024/04/16 03:16:26;;;;;;;9.03;6.17;;;;;;;8.69;69.17;99281.13;5310701;27;20328;-75
2024/04/16 03:18:53;;;;;;;8.07;5.80;;;;;;;8.71;69.72;99283.72;5310903;27;20708;-75
2024/04/16 03:21:18;;;;;;;7.70;5.50;;;;;;;8.98;68.54;99271.41;5311020;27;20290;-76
2024/04/16 03:23:44;;;;;;;6.73;5.70;;;;;;;7.92;70.62;99281.47;5311076;27;20464;-74
2024/04/16 03:26:09;;;;;;;5.40;4.90;;;;;;;8.83;68.96;99265.44;5310781;27;20222;-75
2024/04/16 03:28:34;;;;;;;5.87;5.30;;;;;;;8.62;69.08;99273.38;5310866;27;20218;-75
2024/04/16 03:31:00;;;;;;;7.43;5.80;;;;;;;9.15;67.24;99274.75;5311523;27;20226;-75
2024/04/16 03:35:54;;;;;;;6.33;5.60;;;;;;;8.59;69.35;99292.44;5325604;21;20289;-75
2024/04/16 03:38:20;;;;;;;7.97;6.90;;;;;;;8.81;68.56;99293.19;5280001;27;20270;-73
2024/04/16 03:40:58;;;;;;;9.77;6.57;;;;;;;8.60;69.24;99299.38;5310582;27;21040;-73
2024/04/16 03:43:24;;;;;;;8.93;7.00;;;;;;;8.67;68.06;99295.84;5276596;27;20382;-74
2024/04/16 03:45:57;;;;;;;7.57;6.10;;;;;;;9.36;66.36;99288.44;5276306;27;20474;-73
2024/04/16 03:48:23;;;;;;;6.50;5.90;;;;;;;9.43;66.03;99296.16;5276350;27;20874;-74
2024/04/16 03:50:49;;;;;;;9.37;6.80;;;;;;;8.55;67.51;99306.31;5282569;27;20461;-74
2024/04/16 03:53:14;;;;;;;7.43;6.73;;;;;;;9.13;65.77;99302.47;5283656;27;20470;-74
2024/04/16 03:55:40;;;;;;;6.90;6.20;;;;;;;8.53;67.97;99311.53;5283215;27;20243;-73
2024/04/16 03:58:05;;;;;;;10.00;7.47;;;;;;;9.18;66.60;99315.47;5283236;27;20324;-74
2024/04/16 04:03:16;;;;;;;16.00;11.80;;;;;;;8.93;66.63;99316.50;5283718;27;20257;-73
2024/04/16 04:05:47;;;;;;;13.23;10.80;;;;;;;8.86;66.77;99314.81;5282857;27;20458;-73
2024/04/16 04:08:13;;;;;;;7.63;6.83;;;;;;;8.92;66.62;99322.56;5282885;27;20438;-74
2024/04/16 04:10:38;;;;;;;9.67;6.00;;;;;;;8.17;68.86;99334.16;5283568;27;20499;-73
2024/04/16 04:13:04;;;;;;;6.83;5.77;;;;;;;8.81;66.72;99336.47;5283118;27;20219;-74
2024/04/16 04:15:30;;;;;;;7.03;5.80;;;;;;;8.92;66.24;99332.09;5283022;27;20235;-73
2024/04/16 04:17:56;;;;;;;5.20;4.70;;;;;;;8.89;66.17;99332.09;5281720;27;20267;-74
2024/04/16 04:20:21;;;;;;;8.90;4.50;;;;;;;9.12;65.98;99329.38;5282949;27;20484;-74
2024/04/16 04:22:46;;;;;;;5.33;4.50;;;;;;;8.72;65.56;99329.63;5282867;27;20747;-73
2024/04/16 04:25:12;;;;;;;4.67;4.27;;;;;;;9.43;65.08;99324.78;5252943;27;20688;-74
2024/04/16 04:27:41;;;;;;;8.00;4.73;;;;;;;9.17;64.57;99335.38;5282486;27;20223;-74
2024/04/16 04:30:10;;;;;;;5.50;5.00;;;;;;;8.95;66.20;99334.66;5282736;27;20329;-73
2024/04/16 04:32:36;;;;;;;6.33;5.10;;;;;;;9.18;66.22;99336.25;5282918;27;20565;-74
2024/04/16 04:35:02;;;;;;;6.70;6.10;;;;;;;9.18;65.58;99341.47;5282771;27;20959;-74
2024/04/16 04:37:27;;;;;;;10.83;6.97;;;;;;;8.85;66.49;99348.59;5282398;27;20576;-73
2024/04/16 04:39:53;;;;;;;8.93;6.83;;;;;;;8.97;65.94;99338.13;5282605;27;20499;-73
2024/04/16 04:42:18;;;;;;;9.77;7.30;;;;;;;8.37;66.89;99351.38;5282386;27;20508;-74
2024/04/16 04:44:44;;;;;;;7.13;6.37;;;;;;;8.25;68.06;99347.09;5252365;27;20301;-74
2024/04/16 04:47:09;;;;;;;8.57;7.77;;;;;;;9.43;65.47;99337.78;5282647;27;20227;-74
2024/04/16 04:49:35;;;;;;;9.40;7.23;;;;;;;8.41;66.92;99353.97;5252747;27;20231;-73
2024/04/16 04:52:00;;;;;;;7.30;6.30;;;;;;;9.59;64.17;99348.94;5285768;27;20262;-73
2024/04/16 04:54:25;;;;;;;7.53;6.83;;;;;;;9.04;65.33;99357.16;5292705;27;20257;-74
2024/04/16 04:56:50;;;;;;;17.67;13.83;;;;;;;9.59;64.46;99342.84;5286471;27;20223;-74
2024/04/16 04:59:16;;;;;;;8.17;7.37;;;;;;;8.91;65.33;99346.81;5281661;27;20227;-74
2024/04/16 05:01:41;;;;;;;9.00;7.10;;;;;;;9.68;64.09;99349.72;5279466;27;20228;-74
2024/04/16 05:04:07;;;;;;;8.03;7.23;;;;;;;9.20;65.40;99360.50;5277956;27;20243;-72
2024/04/16 05:06:33;;;;;;;8.90;7.30;;;;;;;9.47;64.46;99350.75;5278112;27;20231;-74
2024/04/16 05:08:59;;;;;;;7.33;6.63;;;;;;;9.55;64.81;99361.97;5278315;27;20321;-74
2024/04/16 05:11:24;;;;;;;9.90;8.70;;;;;;;9.58;64.65;99359.34;5276674;27;20570;-74
2024/04/16 05:13:50;;;;;;;18.83;13.30;;;;;;;9.34;64.91;99365.63;5278034;27;20574;-72
2024/04/16 05:16:15;;;;;;;9.40;7.93;;;;;;;8.90;66.27;99360.72;5276976;27;20650;-74
2024/04/16 05:18:41;;;;;;;10.20;8.90;;;;;;;9.17;65.61;99363.13;5277891;27;20265;-74
2024/04/16 05:21:06;;;;;;;9.23;7.60;;;;;;;9.40;64.49;99366.44;5277878;27;20235;-74
2024/04/16 05:23:31;;;;;;;8.73;7.17;;;;;;;9.99;64.11;99359.84;5276224;27;20243;-74
2024/04/16 05:26:02;;;;;;;8.70;7.70;;;;;;;9.55;65.01;99364.56;5275590;27;20231;-73
2024/04/16 05:28:28;;;;;;;11.70;9.00;;;;;;;9.54;64.39;99361.13;5249503;27;20224;-73
2024/04/16 05:30:53;;;;;;;10.33;9.23;;;;;;;9.57;64.53;99368.03;5278022;27;21135;-73
2024/04/16 05:33:18;;;;;;;7.77;6.70;;;;;;;9.46;64.95;99367.25;5247753;27;20666;-73
2024/04/16 05:35:44;;;;;;;7.57;6.87;;;;;;;9.39;64.97;99356.03;5277593;27;20273;-73
2024/04/16 05:38:09;;;;;;;6.80;6.20;;;;;;;9.42;64.77;99361.22;5248006;27;20333;-75
2024/04/16 05:40:34;;;;;;;7.87;7.07;;;;;;;9.47;64.22;99361.16;5248159;27;20255;-74
2024/04/16 05:43:00;;;;;;;8.23;6.60;;;;;;;9.73;63.77;99359.22;5278258;27;20741;-74
2024/04/16 05:45:25;;;;;;;7.43;6.10;;;;;;;9.56;64.17;99359.34;5277208;27;20244;-74
2024/04/16 05:47:50;;;;;;;7.60;6.70;;;;;;;9.58;64.69;99368.00;5277834;27;20329;-74
2024/04/16 05:50:16;;;;;;;8.43;6.97;;;;;;;9.77;64.02;99368.72;5277885;27;20223;-74
2024/04/16 05:52:41;;;;;;;8.23;7.43;;;;;;;9.98;64.34;99366.78;5278164;27;20634;-76
2024/04/16 05:55:06;;;;;;;7.33;6.37;;;;;;;9.86;64.25;99359.09;5277347;27;20353;-75
2024/04/16 05:57:32;;;;;;;7.47;6.67;;;;;;;9.62;64.62;99363.66;5277528;27;20279;-75
2024/04/16 05:59:57;;;;;;;10.30;6.37;;;;;;;9.64;64.50;99361.88;5277245;27;20352;-75
2024/04/16 06:02:23;;;;;;;6.03;5.43;;;;;;;8.59;66.77;99372.97;5277586;27;20227;-75
2024/04/16 06:04:48;;;;;;;6.97;6.00;;;;;;;9.00;65.90;99374.50;5277220;27;20235;-73
2024/04/16 06:07:13;;;;;;;6.40;5.70;;;;;;;9.18;65.65;99372.66;5277137;27;20325;-75
2024/04/16 06:09:38;;;;;;;6.63;5.63;;;;;;;9.70;64.36;99371.38;5277438;27;20302;-73
2024/04/16 06:12:04;;;;;;;6.63;5.90;;;;;;;9.33;65.44;99382.09;5277627;27;20228;-72
2024/04/16 06:14:29;;;;;;;5.83;5.33;;;;;;;9.72;64.58;99378.28;5277415;27;20651;-73
2024/04/16 06:16:55;;;;;;;5.73;5.13;;;;;;;9.82;64.86;99378.22;5275482;27;20228;-74
2024/04/16 06:19:20;;;;;;;5.87;5.27;;;;;;;10.07;64.48;99384.91;5275883;27;20239;-74
2024/04/16 06:21:45;;;;;;;6.60;5.93;;;;;;;9.49;65.32;99383.69;5277027;27;20333;-74
2024/04/16 06:24:11;;;;;;;11.73;8.63;;;;;;;9.62;65.27;99384.47;5277000;27;20835;-74
2024/04/16 06:26:37;;;;;;;5.93;5.33;;;;;;;9.12;65.97;99383.09;5276463;27;20223;-73
2024/04/16 06:29:03;;;;;;;6.03;5.43;;;;;;;8.90;66.79;99396.22;5277154;27;20552;-73
2024/04/16 06:31:28;;;;;;;6.37;5.70;;;;;;;9.43;65.58;99389.81;5277365;27;20987;-74
2024/04/16 06:33:53;;;;;;;10.30;6.07;;;;;;;9.10;65.50;99396.09;5276675;27;20497;-75
2024/04/16 06:36:19;;;;;;;6.00;5.40;;;;;;;9.68;64.60;99389.59;5277098;27;20266;-74
2024/04/16 06:38:44;;;;;;;7.13;6.13;;;;;;;9.64;63.97;99387.91;5277337;27;20223;-73
2024/04/16 06:41:10;;;;;;;6.80;6.10;;;;;;;9.46;65.18;99385.44;5276698;27;20231;-74
2024/04/16 06:43:35;;;;;;;8.10;6.57;;;;;;;9.51;65.08;99379.34;5246712;27;20599;-74
2024/04/16 06:46:00;;;;;;;6.87;6.17;;;;;;;9.53;64.48;99381.94;5276708;27;20227;-74
2024/04/16 06:48:26;;;;;;;9.00;7.37;;;;;;;9.78;64.20;99385.19;5277048;27;20223;-74
2024/04/16 06:50:51;;;;;;;8.00;7.20;;;;;;;9.33;63.76;99393.34;5277021;27;20323;-74
2024/04/16 06:53:16;;;;;;;8.60;7.20;;;;;;;9.87;63.22;99392.06;5274805;27;20319;-72
2024/04/16 06:55:42;;;;;;;10.13;8.50;;;;;;;10.10;63.17;99392.69;5272821;27;20243;-73
2024/04/16 06:58:08;;;;;;;11.70;6.90;;;;;;;9.47;63.38;99400.19;5274582;27;20583;-74
2024/04/16 07:00:34;;;;;;;12.73;7.07;;;;;;;9.58;63.61;99411.41;5245620;27;20273;-74
2024/04/16 07:03:00;;;;;;;8.27;6.70;;;;;;;10.01;63.08;99404.94;5275723;27;20517;-74
2024/04/16 07:05:25;;;;;;;7.93;7.13;;;;;;;10.23;62.41;99403.00;5275264;27;20463;-74
2024/04/16 07:07:51;;;;;;;7.80;7.10;;;;;;;10.46;62.57;99397.56;5275817;27;20231;-74
2024/04/16 07:10:17;;;;;;;9.20;7.53;;;;;;;10.32;62.46;99399.41;5275799;27;20621;-74
2024/04/16 07:12:42;;;;;;;9.67;7.70;;;;;;;10.01;62.89;99420.56;5275752;27;20526;-73
2024/04/16 07:15:08;;;;;;;10.20;8.80;;;;;;;10.28;62.89;99414.22;5219755;27;20243;-74
2024/04/16 07:17:34;;;;;;;9.77;8.77;;;;;;;10.70;61.66;99414.66;5274897;27;20246;-73
2024/04/16 07:19:59;;;;;;;14.00;8.60;;;;;;;10.78;60.99;99418.03;5276732;27;20662;-74
2024/04/16 07:22:24;;;;;;;10.70;9.57;;;;;;;10.81;60.60;99426.66;5276111;27;20282;-74
2024/04/16 07:24:50;;;;;;;10.20;7.97;;;;;;;10.55;61.89;99426.13;5275576;27;20239;-74
2024/04/16 07:27:16;;;;;;;11.80;8.70;;;;;;;10.02;62.17;99428.34;5275737;27;20235;-73
2024/04/16 07:29:44;;;;;;;9.97;8.53;;;;;;;10.67;61.19;99430.31;5276151;27;20285;-74
2024/04/16 07:32:10;;;;;;;8.37;7.47;;;;;;;10.16;61.73;99435.16;5275499;27;20809;-74
2024/04/16 07:34:35;;;;;;;10.70;7.80;;;;;;;10.73;61.01;99430.25;5273774;27;20463;-73
2024/04/16 07:37:00;;;;;;;8.23;6.90;;;;;;;10.52;61.76;99430.50;5275364;27;20374;-73
2024/04/16 07:39:26;;;;;;;9.67;7.63;;;;;;;10.73;60.88;99430.25;5273706;27;20613;-74
2024/04/16 07:41:51;;;;;;;10.37;8.37;;;;;;;9.99;62.09;99449.22;5275467;27;20242;-73
2024/04/16 07:44:19;;;;;;;8.97;7.30;;;;;;;10.34;62.05;99448.03;5275716;27;20234;-73
2024/04/16 07:46:44;;;;;;;8.73;6.97;;;;;;;10.13;62.40;99446.47;5239952;27;20321;-75
2024/04/16 07:49:10;;;;;;;8.50;6.00;;;;;;;10.75;61.14;99448.47;5274042;27;20467;-75
2024/04/16 07:51:35;;;;;;;7.60;6.63;;;;;;;10.79;60.84;99443.19;5276368;27;20246;-74
2024/04/16 07:54:00;;;;;;;9.37;6.43;;;;;;;10.56;61.29;99453.88;5276443;27;20692;-75
2024/04/16 07:56:25;;;;;;;7.00;6.30;;;;;;;10.42;61.67;99454.03;5275919;27;20277;-75
2024/04/16 07:58:51;;;;;;;11.77;5.97;;;;;;;10.66;60.86;99459.00;5274005;27;20270;-75
2024/04/16 08:01:16;;;;;;;8.50;6.47;;;;;;;10.67;61.20;99456.38;5279419;27;20346;-74
2024/04/16 08:03:42;;;;;;;8.50;6.80;;;;;;;11.10;60.35;99455.00;5289158;27;20291;-75
2024/04/16 08:06:07;;;;;;;7.97;6.47;;;;;;;11.04;61.38;99468.09;5278821;27;20819;-75
2024/04/16 08:08:33;;;;;;;9.10;6.80;;;;;;;10.83;62.20;99469.25;5245739;27;20575;-75
2024/04/16 08:11:13;;;;;;;8.97;6.00;;;;;;;10.97;61.93;99466.47;5275781;27;20251;-74
2024/04/16 08:13:39;;;;;;;7.10;5.97;;;;;;;10.97;61.96;99472.53;5272884;27;20238;-76
2024/04/16 08:16:06;;;;;;;9.20;6.03;;;;;;;10.75;62.15;99480.59;5273998;27;20550;-75
2024/04/16 08:18:31;;;;;;;8.97;7.07;;;;;;;11.00;62.35;99482.06;5274298;27;21193;-75
2024/04/16 08:20:56;;;;;;;8.77;6.63;;;;;;;10.97;62.70;99480.34;5275798;27;20439;-75
2024/04/16 08:23:22;;;;;;;7.80;6.60;;;;;;;11.36;61.22;99483.31;5275066;27;20239;-75
2024/04/16 08:26:00;;;;;;;8.60;5.90;;;;;;;11.29;61.05;99476.47;5274490;27;20239;-76
2024/04/16 08:28:26;;;;;;;7.33;6.40;;;;;;;11.20;62.07;99482.66;5274586;27;20235;-75
2024/04/16 08:30:53;;;;;;;7.60;6.80;;;;;;;11.44;61.13;99491.03;5274047;27;21039;-74
2024/04/16 08:33:20;;;;;;;7.37;6.07;;;;;;;11.29;60.51;99494.72;5275337;27;20621;-74
2024/04/16 08:35:46;;;;;;;6.30;5.70;;;;;;;10.79;61.21;99499.69;5274783;27;20527;-74
2024/04/16 08:38:11;;;;;;;12.00;7.30;;;;;;;11.17;61.63;99494.91;5277293;27;20849;-73
2024/04/16 08:40:37;;;;;;;6.93;5.77;;;;;;;11.79;60.13;99490.53;5277685;27;20502;-72
2024/04/16 08:43:02;;;;;;;8.70;5.90;;;;;;;11.91;59.68;99502.53;5277880;27;20291;-74
2024/04/16 08:45:29;;;;;;;6.70;5.67;;;;;;;12.15;58.53;99489.13;5277191;27;20465;-72
2024/04/16 08:47:57;;;;;;;7.03;5.27;;;;;;;12.14;58.41;99501.34;5277857;27;20277;-72
2024/04/16 08:50:23;;;;;;;7.57;6.13;;;;;;;12.64;57.96;99503.94;5277408;27;20902;-72
2024/04/16 08:52:50;;;;;;;10.43;6.97;;;;;;;12.79;57.35;99502.78;5277579;27;20522;-73
2024/04/16 08:55:19;;;;;;;7.80;5.60;;;;;;;12.52;57.09;99506.78;5275824;27;20477;-73
2024/04/16 08:57:45;;;;;;;6.90;5.87;;;;;;;12.43;57.26;99507.78;5248221;27;20812;-73
2024/04/16 09:00:10;;;;;;;6.73;6.03;;;;;;;12.32;57.93;99507.97;5278154;27;20496;-72
2024/04/16 09:02:37;;;;;;;5.33;4.80;;;;;;;12.26;58.14;99513.34;5278623;27;20454;-73
2024/04/16 09:05:03;;;;;;;8.23;5.20;;;;;;;12.20;58.63;99518.66;5278234;27;20698;-73
2024/04/16 09:07:30;;;;;;;8.07;6.20;;;;;;;11.86;59.08;99521.78;5278062;27;20450;-72
2024/04/16 09:09:56;;;;;;;6.10;5.20;;;;;;;11.86;59.37;99530.47;5248215;27;20533;-72
2024/04/16 09:12:21;;;;;;;6.60;5.03;;;;;;;11.42;60.57;99530.22;5278404;27;20418;-72
2024/04/16 09:14:48;;;;;;;8.10;5.57;;;;;;;11.71;60.57;99536.78;5277977;27;20243;-73
2024/04/16 09:17:16;;;;;;;7.77;6.27;;;;;;;11.89;60.03;99534.78;5277828;27;20219;-74
2024/04/16 09:19:41;;;;;;;6.67;5.57;;;;;;;12.15;59.87;99529.19;5277705;27;20466;-74
2024/04/16 09:22:07;;;;;;;8.63;5.60;;;;;;;12.11;59.62;99533.59;5278367;27;20479;-74
2024/04/16 09:24:33;;;;;;;7.13;5.30;;;;;;;12.37;59.23;99531.44;5277854;27;20235;-74
2024/04/16 09:26:59;;;;;;;7.30;5.97;;;;;;;11.94;59.85;99541.69;5278250;27;20816;-74
2024/04/16 09:29:25;;;;;;;5.53;4.87;;;;;;;12.75;59.57;99543.81;5277678;27;20320;-73
2024/04/16 09:32:00;;;;;;;8.40;5.10;;;;;;;12.86;57.56;99542.75;5277744;27;20615;-73
2024/04/16 09:34:26;;;;;;;6.83;5.90;;;;;;;13.16;57.54;99543.03;5277197;27;20488;-75
2024/04/16 09:36:51;;;;;;;7.30;6.50;;;;;;;13.47;55.80;99543.28;5278400;27;20458;-74
2024/04/16 09:39:18;;;;;;;6.47;5.73;;;;;;;13.59;56.15;99542.16;5277531;27;20380;-74
2024/04/16 09:41:44;;;;;;;5.57;5.07;;;;;;;13.12;56.16;99543.13;5248229;27;20362;-72
2024/04/16 09:44:11;;;;;;;7.30;5.20;;;;;;;13.17;55.57;99550.88;5277632;27;20537;-73
2024/04/16 09:46:39;;;;;;;8.77;6.70;;;;;;;13.51;53.94;99550.19;5277829;27;20451;-72
2024/04/16 09:49:07;;;;;;;8.80;5.57;;;;;;;13.39;53.81;99550.44;5278117;27;21032;-72
2024/04/16 09:51:35;;;;;;;7.30;6.33;;;;;;;12.89;55.59;99555.78;5277743;27;20426;-73
2024/04/16 09:54:02;;;;;;;7.50;5.57;;;;;;;13.06;54.81;99553.69;5277485;27;21062;-72
2024/04/16 09:56:33;;;;;;;7.87;5.93;;;;;;;12.78;54.82;99564.66;5277811;27;20430;-74
2024/04/16 09:58:59;;;;;;;8.13;5.87;;;;;;;12.34;54.96;99571.56;5277660;27;20496;-75
2024/04/16 10:01:27;;;;;;;7.13;6.27;;;;;;;12.59;54.27;99574.59;5278169;27;20498;-75
2024/04/16 10:03:54;;;;;;;7.10;5.60;;;;;;;12.64;55.61;99570.16;5278184;27;20490;-73
2024/04/16 10:06:19;;;;;;;8.60;5.70;;;;;;;13.09;53.05;99573.72;5277367;27;20450;-74
2024/04/16 10:08:45;;;;;;;7.80;5.43;;;;;;;12.93;54.97;99583.59;5277676;27;20473;-74
2024/04/16 10:11:11;;;;;;;6.20;4.80;;;;;;;12.56;55.05;99576.41;5278104;27;20227;-74
2024/04/16 10:13:40;;;;;;;6.17;5.57;;;;;;;12.59;55.97;99573.75;5277556;27;20306;-75
2024/04/16 10:16:11;;;;;;;7.80;6.60;;;;;;;12.94;55.82;99583.56;5276478;27;20454;-74
2024/04/16 10:18:36;;;;;;;6.60;5.77;;;;;;;13.14;54.77;99584.94;5277713;27;20478;-74
2024/04/16 10:21:02;;;;;;;5.50;5.00;;;;;;;13.43;52.83;99579.13;5277877;27;20439;-74
2024/04/16 10:23:28;;;;;;;6.00;5.40;;;;;;;13.48;53.38;99582.53;5277310;27;20329;-74
2024/04/16 10:25:55;;;;;;;6.80;5.50;;;;;;;13.01;53.91;99588.69;5277082;27;20458;-75
2024/04/16 10:28:31;;;;;;;7.80;5.20;;;;;;;13.77;52.24;99583.69;5276820;27;20427;-75
2024/04/16 10:31:00;;;;;;;6.80;6.13;;;;;;;13.67;51.98;99590.00;5277146;27;20442;-74
2024/04/16 10:33:27;;;;;;;8.00;5.73;;;;;;;13.41;52.79;99586.19;5276927;27;20876;-74
2024/04/16 10:35:56;;;;;;;7.30;5.30;;;;;;;14.13;52.00;99590.72;5277699;27;20972;-74
2024/04/16 10:38:23;;;;;;;7.43;5.20;;;;;;;14.18;51.82;99593.22;5246744;27;20480;-73
2024/04/16 10:40:56;;;;;;;8.93;6.27;;;;;;;14.11;51.05;99593.38;5277530;27;20472;-74
2024/04/16 10:43:23;;;;;;;6.33;5.27;;;;;;;14.22;50.80;99590.50;5277063;27;21099;-74
2024/04/16 10:45:49;;;;;;;7.13;5.53;;;;;;;14.39;51.39;99602.34;5276890;27;20446;-73
2024/04/16 10:48:17;;;;;;;6.37;5.33;;;;;;;13.78;52.13;99601.09;5276722;27;20446;-74
2024/04/16 10:50:42;;;;;;;5.20;4.07;;;;;;;14.28;50.90;99599.97;5276780;27;20223;-73
2024/04/16 10:53:14;;;;;;;4.17;3.77;;;;;;;13.73;51.15;99604.72;5276595;27;20968;-74
2024/04/16 10:55:41;;;;;;;6.30;3.60;;;;;;;14.24;50.09;99595.72;5276634;27;20349;-73
2024/04/16 10:58:14;;;;;;;11.90;7.10;;;;;;;14.62;48.00;99600.00;5246232;27;20553;-73
2024/04/16 11:00:41;;;;;;;18.33;11.60;;;;;;;15.21;47.13;99601.13;5275912;27;20518;-74
2024/04/16 11:03:09;;;;;;;23.50;15.87;;;;;;;15.23;46.66;99594.06;5277212;27;20478;-74
2024/04/16 11:05:36;;;;;;;8.67;6.70;;;;;;;15.08;46.85;99597.09;5276904;27;20491;-73
2024/04/16 11:08:02;;;;;;;6.80;6.10;;;;;;;14.80;47.61;99598.72;5276411;27;21039;-74
2024/04/16 11:10:27;;;;;;;6.23;3.40;;;;;;;14.76;47.60;99609.31;5276781;27;20450;-74
2024/04/16 11:12:53;;;;;;;6.63;3.80;;;;;;;14.35;50.67;99621.69;5282855;27;20816;-73
2024/04/16 11:15:19;;;;;;;6.50;4.53;;;;;;;14.27;51.91;99616.59;5285913;27;20613;-73
2024/04/16 11:17:44;;;;;;;6.00;3.77;;;;;;;14.00;53.47;99631.22;5277392;27;20333;-73
2024/04/16 11:20:10;;;;;;;5.83;3.33;;;;;;;13.92;53.35;99629.63;5277257;27;20434;-73
2024/04/16 11:22:36;;;;;;;5.03;3.70;;;;;;;13.87;53.50;99630.59;5277487;27;20223;-75
2024/04/16 11:25:11;;;;;;;7.23;4.00;;;;;;;13.88;53.82;99630.59;5276257;27;20239;-73
2024/04/16 11:27:37;;;;;;;5.63;3.80;;;;;;;14.29;52.23;99626.16;5275840;27;20425;-72
2024/04/16 11:30:03;;;;;;;4.70;3.60;;;;;;;14.36;51.61;99637.38;5246632;27;20508;-72
2024/04/16 11:32:31;;;;;;;4.50;3.47;;;;;;;13.91;52.38;99643.63;5276503;27;20803;-74
2024/04/16 11:34:56;;;;;;;10.10;4.03;;;;;;;14.21;52.60;99642.97;5276565;27;20624;-74
2024/04/16 11:37:22;;;;;;;5.53;3.50;;;;;;;13.86;52.06;99645.47;5276462;27;20443;-74